sensor_id;sensor_type;location;lat;lon;timestamp;temperature;humidity
8172;DHT22;4127;47.908;10.850;2023-05-07T09:42:28;21.70;98.20
8172;DHT22;4127;47.908;10.850;2023-05-07T09:44:56;21.20;97.20
8172;DHT22;4127;47.908;10.850;2023-05-07T09:47:24;21.20;98.10
8172;DHT22;4127;47.908;10.850;2023-05-07T09:49:55;21.70;98.40
8172;DHT22;4127;47.908;10.850;2023-05-07T09:52:23;21.90;95.60
8172;DHT22;4127;47.908;10.850;2023-05-07T09:54:52;21.80;97.80
8172;DHT22;4127;47.908;10.850;2023-05-07T09:57:20;22.10;95.20
8172;DHT22;4127;47.908;10.850;2023-05-07T09:59:47;22.30;96.90
8172;DHT22;4127;47.908;10.850;2023-05-07T10:02:16;22.20;94.70
8172;DHT22;4127;47.908;10.850;2023-05-07T10:04:45;22.10;95.10
8172;DHT22;4127;47.908;10.850;2023-05-07T10:07:14;21.40;95.30
8172;DHT22;4127;47.908;10.850;2023-05-07T10:09:42;21.20;94.90
8172;DHT22;4127;47.908;10.850;2023-05-07T10:12:10;21.70;95.40
8172;DHT22;4127;47.908;10.850;2023-05-07T10:14:37;22.30;95.40
8172;DHT22;4127;47.908;10.850;2023-05-07T10:17:05;22.70;94.60
8172;DHT22;4127;47.908;10.850;2023-05-07T10:19:33;21.70;95.30
8172;DHT22;4127;47.908;10.850;2023-05-07T10:22:04;21.80;94.80
8172;DHT22;4127;47.908;10.850;2023-05-07T10:24:33;21.50;95.60
8172;DHT22;4127;47.908;10.850;2023-05-07T10:27:09;21.90;95.50
8172;DHT22;4127;47.908;10.850;2023-05-07T10:29:42;22.40;95.00
8172;DHT22;4127;47.908;10.850;2023-05-07T10:32:33;21.60;94.50
8172;DHT22;4127;47.908;10.850;2023-05-07T10:35:04;20.90;97.10
8172;DHT22;4127;47.908;10.850;2023-05-07T10:37:32;21.10;96.50
8172;DHT22;4127;47.908;10.850;2023-05-07T10:39:59;21.20;97.10
8172;DHT22;4127;47.908;10.850;2023-05-07T10:42:26;21.40;95.90
8172;DHT22;4127;47.908;10.850;2023-05-07T10:44:52;22.00;96.80
8172;DHT22;4127;47.908;10.850;2023-05-07T10:47:20;22.60;96.00
8172;DHT22;4127;47.908;10.850;2023-05-07T10:52:24;21.70;95.40
8172;DHT22;4127;47.908;10.850;2023-05-07T10:57:45;22.40;94.90
8172;DHT22;4127;47.908;10.850;2023-05-07T11:03:07;21.80;94.00
8172;DHT22;4127;47.908;10.850;2023-05-07T11:05:35;22.20;95.50
8172;DHT22;4127;47.908;10.850;2023-05-07T11:08:04;21.90;93.20
8172;DHT22;4127;47.908;10.850;2023-05-07T11:10:56;21.90;94.00
8172;DHT22;4127;47.908;10.850;2023-05-07T11:13:44;21.90;94.30
8172;DHT22;4127;47.908;10.850;2023-05-07T11:18:50;21.60;94.90
8172;DHT22;4127;47.908;10.850;2023-05-07T11:21:36;21.60;96.10
8172;DHT22;4127;47.908;10.850;2023-05-07T11:24:06;22.20;95.00
8172;DHT22;4127;47.908;10.850;2023-05-07T11:26:49;22.50;91.70
8172;DHT22;4127;47.908;10.850;2023-05-07T11:29:21;22.30;93.80
8172;DHT22;4127;47.908;10.850;2023-05-07T11:31:53;22.20;94.60
8172;DHT22;4127;47.908;10.850;2023-05-07T11:34:22;22.10;93.70
8172;DHT22;4127;47.908;10.850;2023-05-07T11:36:49;22.10;94.30
8172;DHT22;4127;47.908;10.850;2023-05-07T11:39:31;21.60;94.80
8172;DHT22;4127;47.908;10.850;2023-05-07T11:42:00;21.00;95.70
8172;DHT22;4127;47.908;10.850;2023-05-07T11:44:43;21.10;95.70
8172;DHT22;4127;47.908;10.850;2023-05-07T11:47:11;21.00;96.90
8172;DHT22;4127;47.908;10.850;2023-05-07T11:49:38;20.50;95.90
8172;DHT22;4127;47.908;10.850;2023-05-07T11:52:04;20.80;96.60
8172;DHT22;4127;47.908;10.850;2023-05-07T11:54:36;20.90;97.20
8172;DHT22;4127;47.908;10.850;2023-05-07T11:57:03;21.20;97.30
8172;DHT22;4127;47.908;10.850;2023-05-07T11:59:38;21.40;95.90
8172;DHT22;4127;47.908;10.850;2023-05-07T12:02:07;21.40;97.80
8172;DHT22;4127;47.908;10.850;2023-05-07T12:04:34;21.00;96.00
8172;DHT22;4127;47.908;10.850;2023-05-07T12:07:01;21.00;95.90
8172;DHT22;4127;47.908;10.850;2023-05-07T12:09:28;21.00;97.50
8172;DHT22;4127;47.908;10.850;2023-05-07T12:11:55;20.60;97.30
8172;DHT22;4127;47.908;10.850;2023-05-07T12:14:27;20.80;98.90
8172;DHT22;4127;47.908;10.850;2023-05-07T12:16:55;20.80;98.10
8172;DHT22;4127;47.908;10.850;2023-05-07T12:19:22;20.80;97.90
8172;DHT22;4127;47.908;10.850;2023-05-07T12:21:49;20.80;97.40
8172;DHT22;4127;47.908;10.850;2023-05-07T12:24:16;20.60;97.90
8172;DHT22;4127;47.908;10.850;2023-05-07T12:26:43;20.70;98.40
8172;DHT22;4127;47.908;10.850;2023-05-07T12:29:10;20.60;97.80
8172;DHT22;4127;47.908;10.850;2023-05-07T12:31:40;20.30;97.30
8172;DHT22;4127;47.908;10.850;2023-05-07T12:34:07;20.20;97.40
8172;DHT22;4127;47.908;10.850;2023-05-07T12:36:40;20.20;98.10
8172;DHT22;4127;47.908;10.850;2023-05-07T12:39:08;20.40;98.20
8172;DHT22;4127;47.908;10.850;2023-05-07T12:42:04;20.50;98.90
8172;DHT22;4127;47.908;10.850;2023-05-07T12:44:34;20.40;97.60
8172;DHT22;4127;47.908;10.850;2023-05-07T12:47:02;20.10;97.20
8172;DHT22;4127;47.908;10.850;2023-05-07T12:49:28;20.10;98.20
8172;DHT22;4127;47.908;10.850;2023-05-07T12:51:55;20.00;98.80
8172;DHT22;4127;47.908;10.850;2023-05-07T12:54:33;20.00;96.30
8172;DHT22;4127;47.908;10.850;2023-05-07T12:57:09;20.20;97.10
8172;DHT22;4127;47.908;10.850;2023-05-07T12:59:38;20.00;96.80
8172;DHT22;4127;47.908;10.850;2023-05-07T13:02:06;19.90;98.60
8172;DHT22;4127;47.908;10.850;2023-05-07T13:04:33;19.80;98.60
8172;DHT22;4127;47.908;10.850;2023-05-07T13:07:00;20.00;97.30
8172;DHT22;4127;47.908;10.850;2023-05-07T13:09:28;20.00;98.70
8172;DHT22;4127;47.908;10.850;2023-05-07T13:11:58;20.10;98.00
8172;DHT22;4127;47.908;10.850;2023-05-07T13:14:27;20.40;99.50
8172;DHT22;4127;47.908;10.850;2023-05-07T13:16:54;20.40;97.80
8172;DHT22;4127;47.908;10.850;2023-05-07T13:19:21;20.40;98.30
8172;DHT22;4127;47.908;10.850;2023-05-07T13:21:48;20.50;98.90
8172;DHT22;4127;47.908;10.850;2023-05-07T13:24:16;20.40;99.90
8172;DHT22;4127;47.908;10.850;2023-05-07T13:26:42;20.30;98.30
8172;DHT22;4127;47.908;10.850;2023-05-07T13:29:11;20.10;98.30
8172;DHT22;4127;47.908;10.850;2023-05-07T13:31:38;19.90;99.90
8172;DHT22;4127;47.908;10.850;2023-05-07T13:34:10;19.80;99.90
8172;DHT22;4127;47.908;10.850;2023-05-07T13:36:36;19.80;99.80
8172;DHT22;4127;47.908;10.850;2023-05-07T13:39:06;19.60;99.80
8172;DHT22;4127;47.908;10.850;2023-05-07T13:41:33;19.60;99.90
8172;DHT22;4127;47.908;10.850;2023-05-07T13:44:00;19.90;99.90
8172;DHT22;4127;47.908;10.850;2023-05-07T13:46:26;20.00;99.90
8172;DHT22;4127;47.908;10.850;2023-05-07T13:48:54;20.10;99.00
8172;DHT22;4127;47.908;10.850;2023-05-07T13:51:21;20.30;99.10
8172;DHT22;4127;47.908;10.850;2023-05-07T13:53:48;20.30;99.40
8172;DHT22;4127;47.908;10.850;2023-05-07T13:56:15;20.30;99.30
8172;DHT22;4127;47.908;10.850;2023-05-07T13:58:41;20.20;99.90
8172;DHT22;4127;47.908;10.850;2023-05-07T14:01:22;20.00;99.90
8172;DHT22;4127;47.908;10.850;2023-05-07T14:03:48;19.90;99.60
8172;DHT22;4127;47.908;10.850;2023-05-07T14:06:15;19.90;99.40
8172;DHT22;4127;47.908;10.850;2023-05-07T14:08:42;19.70;97.40
8172;DHT22;4127;47.908;10.850;2023-05-07T14:11:09;19.70;97.40
8172;DHT22;4127;47.908;10.850;2023-05-07T14:13:36;19.70;97.70
8172;DHT22;4127;47.908;10.850;2023-05-07T14:16:04;19.70;97.80
8172;DHT22;4127;47.908;10.850;2023-05-07T14:18:31;19.80;98.20
8172;DHT22;4127;47.908;10.850;2023-05-07T14:21:00;19.90;99.20
8172;DHT22;4127;47.908;10.850;2023-05-07T14:23:26;20.00;97.80
8172;DHT22;4127;47.908;10.850;2023-05-07T14:25:54;20.00;96.90
8172;DHT22;4127;47.908;10.850;2023-05-07T14:28:21;19.90;97.20
8172;DHT22;4127;47.908;10.850;2023-05-07T14:30:47;20.00;97.30
8172;DHT22;4127;47.908;10.850;2023-05-07T14:33:14;20.00;97.60
8172;DHT22;4127;47.908;10.850;2023-05-07T14:35:41;20.10;97.80
8172;DHT22;4127;47.908;10.850;2023-05-07T14:38:11;20.10;96.40
8172;DHT22;4127;47.908;10.850;2023-05-07T14:40:38;20.10;96.50
8172;DHT22;4127;47.908;10.850;2023-05-07T14:43:05;20.10;98.40
8172;DHT22;4127;47.908;10.850;2023-05-07T14:45:31;20.10;98.70
8172;DHT22;4127;47.908;10.850;2023-05-07T14:47:58;19.80;99.00
8172;DHT22;4127;47.908;10.850;2023-05-07T14:50:25;19.40;97.90
8172;DHT22;4127;47.908;10.850;2023-05-07T14:52:52;19.40;97.00
8172;DHT22;4127;47.908;10.850;2023-05-07T14:55:19;19.50;98.20
8172;DHT22;4127;47.908;10.850;2023-05-07T14:57:45;19.40;99.60
8172;DHT22;4127;47.908;10.850;2023-05-07T15:00:12;19.30;99.90
8172;DHT22;4127;47.908;10.850;2023-05-07T15:02:39;19.50;99.90
8172;DHT22;4127;47.908;10.850;2023-05-07T15:05:07;19.90;99.90
8172;DHT22;4127;47.908;10.850;2023-05-07T15:07:33;20.20;99.10
8172;DHT22;4127;47.908;10.850;2023-05-07T15:10:00;20.30;99.30
8172;DHT22;4127;47.908;10.850;2023-05-07T15:12:27;20.40;97.80
8172;DHT22;4127;47.908;10.850;2023-05-07T15:14:54;20.60;97.80
8172;DHT22;4127;47.908;10.850;2023-05-07T15:17:21;20.80;96.10
8172;DHT22;4127;47.908;10.850;2023-05-07T15:19:47;20.60;95.50
8172;DHT22;4127;47.908;10.850;2023-05-07T15:22:14;20.90;94.40
8172;DHT22;4127;47.908;10.850;2023-05-07T15:24:41;21.10;94.80
8172;DHT22;4127;47.908;10.850;2023-05-07T15:27:07;21.20;93.50
8172;DHT22;4127;47.908;10.850;2023-05-07T15:29:34;21.30;94.50
8172;DHT22;4127;47.908;10.850;2023-05-07T15:32:01;21.30;93.60
8172;DHT22;4127;47.908;10.850;2023-05-07T15:34:28;21.30;94.00
8172;DHT22;4127;47.908;10.850;2023-05-07T15:36:55;21.30;93.20
8172;DHT22;4127;47.908;10.850;2023-05-07T15:39:23;21.30;94.40
8172;DHT22;4127;47.908;10.850;2023-05-07T15:41:50;21.40;93.60
8172;DHT22;4127;47.908;10.850;2023-05-07T15:44:17;21.50;93.60
8172;DHT22;4127;47.908;10.850;2023-05-07T15:46:44;21.40;91.30
8172;DHT22;4127;47.908;10.850;2023-05-07T15:49:11;21.10;93.10
8172;DHT22;4127;47.908;10.850;2023-05-07T15:51:38;20.90;92.60
8172;DHT22;4127;47.908;10.850;2023-05-07T15:54:05;20.80;94.00
8172;DHT22;4127;47.908;10.850;2023-05-07T15:56:32;21.00;93.90
8172;DHT22;4127;47.908;10.850;2023-05-07T15:58:59;20.90;94.60
8172;DHT22;4127;47.908;10.850;2023-05-07T16:01:29;20.80;94.90
8172;DHT22;4127;47.908;10.850;2023-05-07T16:03:57;20.60;95.70
8172;DHT22;4127;47.908;10.850;2023-05-07T16:06:24;20.60;96.90
8172;DHT22;4127;47.908;10.850;2023-05-07T16:08:56;20.30;97.10
8172;DHT22;4127;47.908;10.850;2023-05-07T16:11:26;20.10;99.50
8172;DHT22;4127;47.908;10.850;2023-05-07T16:13:56;20.30;97.90
8172;DHT22;4127;47.908;10.850;2023-05-07T16:16:28;20.10;99.10
8172;DHT22;4127;47.908;10.850;2023-05-07T16:18:58;20.00;99.50
8172;DHT22;4127;47.908;10.850;2023-05-07T16:21:25;20.00;99.90
8172;DHT22;4127;47.908;10.850;2023-05-07T16:23:52;19.90;99.20
8172;DHT22;4127;47.908;10.850;2023-05-07T16:26:18;19.80;98.60
8172;DHT22;4127;47.908;10.850;2023-05-07T16:28:47;19.70;98.80
8172;DHT22;4127;47.908;10.850;2023-05-07T16:31:17;19.50;99.20
8172;DHT22;4127;47.908;10.850;2023-05-07T16:33:44;19.30;98.50
8172;DHT22;4127;47.908;10.850;2023-05-07T16:36:13;19.40;98.90
8172;DHT22;4127;47.908;10.850;2023-05-07T16:38:40;19.20;98.40
8172;DHT22;4127;47.908;10.850;2023-05-07T16:41:09;18.80;99.00
8172;DHT22;4127;47.908;10.850;2023-05-07T16:43:41;18.70;99.90
8172;DHT22;4127;47.908;10.850;2023-05-07T16:46:11;18.70;99.40
8172;DHT22;4127;47.908;10.850;2023-05-07T16:48:38;18.70;99.10
8172;DHT22;4127;47.908;10.850;2023-05-07T16:51:04;18.70;99.90
8172;DHT22;4127;47.908;10.850;2023-05-07T16:53:33;19.00;99.90
8172;DHT22;4127;47.908;10.850;2023-05-07T16:56:05;19.10;99.70
8172;DHT22;4127;47.908;10.850;2023-05-07T16:58:32;19.00;99.50
8172;DHT22;4127;47.908;10.850;2023-05-07T17:01:00;19.00;99.90
8172;DHT22;4127;47.908;10.850;2023-05-07T17:03:28;19.00;99.90
8172;DHT22;4127;47.908;10.850;2023-05-07T17:05:57;19.00;99.90
8172;DHT22;4127;47.908;10.850;2023-05-07T17:08:24;19.20;99.90
8172;DHT22;4127;47.908;10.850;2023-05-07T17:10:51;19.10;99.90
8172;DHT22;4127;47.908;10.850;2023-05-07T17:13:21;19.00;99.90
8172;DHT22;4127;47.908;10.850;2023-05-07T17:15:48;18.80;99.90
8172;DHT22;4127;47.908;10.850;2023-05-07T17:18:15;18.60;99.90
8172;DHT22;4127;47.908;10.850;2023-05-07T17:20:42;18.70;99.90
8172;DHT22;4127;47.908;10.850;2023-05-07T17:23:08;18.90;99.90
8172;DHT22;4127;47.908;10.850;2023-05-07T17:25:35;18.90;99.90
8172;DHT22;4127;47.908;10.850;2023-05-07T17:28:02;19.00;99.90
8172;DHT22;4127;47.908;10.850;2023-05-07T17:30:29;19.00;99.90
8172;DHT22;4127;47.908;10.850;2023-05-07T17:32:56;19.00;99.90
8172;DHT22;4127;47.908;10.850;2023-05-07T17:35:35;19.00;99.90
8172;DHT22;4127;47.908;10.850;2023-05-07T17:38:01;18.90;99.90
8172;DHT22;4127;47.908;10.850;2023-05-07T17:40:28;18.90;99.90
8172;DHT22;4127;47.908;10.850;2023-05-07T17:42:55;18.90;99.90
8172;DHT22;4127;47.908;10.850;2023-05-07T17:45:25;18.80;99.90
8172;DHT22;4127;47.908;10.850;2023-05-07T17:47:51;18.80;99.90
8172;DHT22;4127;47.908;10.850;2023-05-07T17:50:19;18.80;99.90
8172;DHT22;4127;47.908;10.850;2023-05-07T17:52:46;18.70;99.90
8172;DHT22;4127;47.908;10.850;2023-05-07T17:55:14;18.50;99.90
8172;DHT22;4127;47.908;10.850;2023-05-07T17:57:41;18.10;99.90
8172;DHT22;4127;47.908;10.850;2023-05-07T18:00:08;17.90;99.90
8172;DHT22;4127;47.908;10.850;2023-05-07T18:02:38;17.80;99.90
8172;DHT22;4127;47.908;10.850;2023-05-07T18:05:07;17.90;99.90
8172;DHT22;4127;47.908;10.850;2023-05-07T18:07:34;18.00;99.90
8172;DHT22;4127;47.908;10.850;2023-05-07T18:10:02;18.00;99.90
8172;DHT22;4127;47.908;10.850;2023-05-07T18:12:28;18.10;99.90
8172;DHT22;4127;47.908;10.850;2023-05-07T18:14:55;18.10;99.90
8172;DHT22;4127;47.908;10.850;2023-05-07T18:17:22;18.10;99.90
8172;DHT22;4127;47.908;10.850;2023-05-07T18:19:52;18.10;99.90
8172;DHT22;4127;47.908;10.850;2023-05-07T18:22:21;18.20;99.90
8172;DHT22;4127;47.908;10.850;2023-05-07T18:24:48;18.00;99.90
8172;DHT22;4127;47.908;10.850;2023-05-07T18:27:16;17.50;99.90
8172;DHT22;4127;47.908;10.850;2023-05-07T18:29:43;17.30;99.90
8172;DHT22;4127;47.908;10.850;2023-05-07T18:32:09;17.10;99.90
8172;DHT22;4127;47.908;10.850;2023-05-07T18:34:37;17.00;99.90
8172;DHT22;4127;47.908;10.850;2023-05-07T18:37:04;16.90;99.90
8172;DHT22;4127;47.908;10.850;2023-05-07T18:39:31;16.50;99.90
8172;DHT22;4127;47.908;10.850;2023-05-07T18:41:58;16.10;99.90
8172;DHT22;4127;47.908;10.850;2023-05-07T18:44:25;16.00;99.90
8172;DHT22;4127;47.908;10.850;2023-05-07T18:46:52;16.00;99.90
8172;DHT22;4127;47.908;10.850;2023-05-07T18:49:18;15.90;99.90
8172;DHT22;4127;47.908;10.850;2023-05-07T18:51:45;15.70;99.90
8172;DHT22;4127;47.908;10.850;2023-05-07T18:54:12;15.30;99.90
8172;DHT22;4127;47.908;10.850;2023-05-07T18:56:40;15.10;99.90
8172;DHT22;4127;47.908;10.850;2023-05-07T18:59:07;15.00;99.90
8172;DHT22;4127;47.908;10.850;2023-05-07T19:01:34;14.80;99.90
8172;DHT22;4127;47.908;10.850;2023-05-07T19:04:00;14.70;99.90
8172;DHT22;4127;47.908;10.850;2023-05-07T19:06:27;14.60;99.90
8172;DHT22;4127;47.908;10.850;2023-05-07T19:08:58;14.50;99.90
8172;DHT22;4127;47.908;10.850;2023-05-07T19:11:24;14.40;99.90
8172;DHT22;4127;47.908;10.850;2023-05-07T19:13:51;14.30;99.90
8172;DHT22;4127;47.908;10.850;2023-05-07T19:16:18;14.40;99.90
8172;DHT22;4127;47.908;10.850;2023-05-07T19:18:45;14.30;99.90
8172;DHT22;4127;47.908;10.850;2023-05-07T19:21:12;14.30;99.90
8172;DHT22;4127;47.908;10.850;2023-05-07T19:23:39;14.30;99.90
8172;DHT22;4127;47.908;10.850;2023-05-07T19:26:09;14.20;99.90
8172;DHT22;4127;47.908;10.850;2023-05-07T19:28:37;14.20;99.90
8172;DHT22;4127;47.908;10.850;2023-05-07T19:31:06;14.20;99.90
8172;DHT22;4127;47.908;10.850;2023-05-07T19:33:35;14.10;99.90
8172;DHT22;4127;47.908;10.850;2023-05-07T19:36:01;14.00;99.90
8172;DHT22;4127;47.908;10.850;2023-05-07T19:38:28;14.10;99.90
8172;DHT22;4127;47.908;10.850;2023-05-07T19:40:55;14.00;99.90
8172;DHT22;4127;47.908;10.850;2023-05-07T19:43:23;14.00;99.90
8172;DHT22;4127;47.908;10.850;2023-05-07T19:45:51;14.10;99.90
8172;DHT22;4127;47.908;10.850;2023-05-07T19:48:18;14.20;99.90
8172;DHT22;4127;47.908;10.850;2023-05-07T19:50:46;14.20;99.90
8172;DHT22;4127;47.908;10.850;2023-05-07T19:53:14;14.10;99.90
8172;DHT22;4127;47.908;10.850;2023-05-07T19:55:41;14.00;99.90
8172;DHT22;4127;47.908;10.850;2023-05-07T19:58:07;14.00;99.90
8172;DHT22;4127;47.908;10.850;2023-05-07T20:00:34;14.00;99.90
8172;DHT22;4127;47.908;10.850;2023-05-07T20:03:01;13.90;99.90
8172;DHT22;4127;47.908;10.850;2023-05-07T20:05:29;13.80;99.90
8172;DHT22;4127;47.908;10.850;2023-05-07T20:07:56;13.80;99.90
8172;DHT22;4127;47.908;10.850;2023-05-07T20:10:22;13.80;99.90
8172;DHT22;4127;47.908;10.850;2023-05-07T20:12:49;13.70;99.90
8172;DHT22;4127;47.908;10.850;2023-05-07T20:15:16;13.60;99.90
8172;DHT22;4127;47.908;10.850;2023-05-07T20:17:44;13.70;99.90
8172;DHT22;4127;47.908;10.850;2023-05-07T20:20:11;13.60;99.90
8172;DHT22;4127;47.908;10.850;2023-05-07T20:22:39;13.60;99.90
8172;DHT22;4127;47.908;10.850;2023-05-07T20:25:06;13.50;99.90
8172;DHT22;4127;47.908;10.850;2023-05-07T20:27:33;13.50;99.90
8172;DHT22;4127;47.908;10.850;2023-05-07T20:30:00;13.50;99.90
8172;DHT22;4127;47.908;10.850;2023-05-07T20:32:27;13.40;99.90
8172;DHT22;4127;47.908;10.850;2023-05-07T20:34:54;13.40;99.90
8172;DHT22;4127;47.908;10.850;2023-05-07T20:37:21;13.40;99.90
8172;DHT22;4127;47.908;10.850;2023-05-07T20:39:48;13.40;99.90
8172;DHT22;4127;47.908;10.850;2023-05-07T20:42:15;13.40;99.90
8172;DHT22;4127;47.908;10.850;2023-05-07T20:44:43;13.40;99.90
8172;DHT22;4127;47.908;10.850;2023-05-07T20:47:09;13.40;99.90
8172;DHT22;4127;47.908;10.850;2023-05-07T20:49:36;13.50;99.90
8172;DHT22;4127;47.908;10.850;2023-05-07T20:52:04;13.50;99.90
8172;DHT22;4127;47.908;10.850;2023-05-07T20:54:31;13.40;99.90
8172;DHT22;4127;47.908;10.850;2023-05-07T20:56:58;13.40;99.90
8172;DHT22;4127;47.908;10.850;2023-05-07T20:59:25;13.30;99.90
8172;DHT22;4127;47.908;10.850;2023-05-07T21:01:52;13.40;99.90
8172;DHT22;4127;47.908;10.850;2023-05-07T21:04:20;13.40;99.90
8172;DHT22;4127;47.908;10.850;2023-05-07T21:06:46;13.40;99.90
8172;DHT22;4127;47.908;10.850;2023-05-07T21:09:13;13.30;99.90
8172;DHT22;4127;47.908;10.850;2023-05-07T21:11:40;13.30;99.90
8172;DHT22;4127;47.908;10.850;2023-05-07T21:14:07;13.40;99.90
8172;DHT22;4127;47.908;10.850;2023-05-07T21:16:34;13.40;99.90
8172;DHT22;4127;47.908;10.850;2023-05-07T21:19:01;13.50;99.90
8172;DHT22;4127;47.908;10.850;2023-05-07T21:21:28;13.50;99.90
8172;DHT22;4127;47.908;10.850;2023-05-07T21:23:55;13.60;99.90
8172;DHT22;4127;47.908;10.850;2023-05-07T21:26:21;13.70;99.90
8172;DHT22;4127;47.908;10.850;2023-05-07T21:28:49;13.70;99.90
8172;DHT22;4127;47.908;10.850;2023-05-07T21:31:16;13.50;99.90
8172;DHT22;4127;47.908;10.850;2023-05-07T21:33:43;13.30;99.90
8172;DHT22;4127;47.908;10.850;2023-05-07T21:36:10;13.20;99.90
8172;DHT22;4127;47.908;10.850;2023-05-07T21:38:37;13.10;99.90
8172;DHT22;4127;47.908;10.850;2023-05-07T21:41:04;13.00;99.90
8172;DHT22;4127;47.908;10.850;2023-05-07T21:43:31;13.10;99.90
8172;DHT22;4127;47.908;10.850;2023-05-07T21:45:58;13.00;99.90
8172;DHT22;4127;47.908;10.850;2023-05-07T21:48:25;13.00;99.90
8172;DHT22;4127;47.908;10.850;2023-05-07T21:51:10;13.00;99.90
8172;DHT22;4127;47.908;10.850;2023-05-07T21:53:38;13.00;99.90
8172;DHT22;4127;47.908;10.850;2023-05-07T21:56:05;13.00;99.90
8172;DHT22;4127;47.908;10.850;2023-05-07T21:58:32;12.90;99.90
8172;DHT22;4127;47.908;10.850;2023-05-07T22:01:00;12.90;99.90
8172;DHT22;4127;47.908;10.850;2023-05-07T22:03:27;13.00;99.90
8172;DHT22;4127;47.908;10.850;2023-05-07T22:05:54;13.00;99.90
8172;DHT22;4127;47.908;10.850;2023-05-07T22:08:21;13.00;99.90
8172;DHT22;4127;47.908;10.850;2023-05-07T22:10:48;13.00;99.90
8172;DHT22;4127;47.908;10.850;2023-05-07T22:13:14;13.00;99.90
8172;DHT22;4127;47.908;10.850;2023-05-07T22:15:42;12.90;99.90
8172;DHT22;4127;47.908;10.850;2023-05-07T22:18:23;13.00;99.90
8172;DHT22;4127;47.908;10.850;2023-05-07T22:20:50;13.00;99.90
8172;DHT22;4127;47.908;10.850;2023-05-07T22:23:17;13.20;99.90
8172;DHT22;4127;47.908;10.850;2023-05-07T22:25:44;13.30;99.90
8172;DHT22;4127;47.908;10.850;2023-05-07T22:28:11;13.40;99.90
8172;DHT22;4127;47.908;10.850;2023-05-07T22:30:38;13.40;99.90
8172;DHT22;4127;47.908;10.850;2023-05-07T22:33:04;13.30;99.90
8172;DHT22;4127;47.908;10.850;2023-05-07T22:35:31;13.30;99.90
8172;DHT22;4127;47.908;10.850;2023-05-07T22:37:58;13.30;99.90
8172;DHT22;4127;47.908;10.850;2023-05-07T22:40:25;13.20;99.90
8172;DHT22;4127;47.908;10.850;2023-05-07T22:42:52;13.10;99.90
8172;DHT22;4127;47.908;10.850;2023-05-07T22:45:18;13.00;99.90
8172;DHT22;4127;47.908;10.850;2023-05-07T22:47:46;13.00;99.90
8172;DHT22;4127;47.908;10.850;2023-05-07T22:50:12;13.00;99.90
8172;DHT22;4127;47.908;10.850;2023-05-07T22:52:40;13.00;99.90
8172;DHT22;4127;47.908;10.850;2023-05-07T22:55:07;12.90;99.90
8172;DHT22;4127;47.908;10.850;2023-05-07T22:57:33;12.90;99.90
8172;DHT22;4127;47.908;10.850;2023-05-07T23:00:00;13.00;99.90
8172;DHT22;4127;47.908;10.850;2023-05-07T23:02:27;13.00;99.90
8172;DHT22;4127;47.908;10.850;2023-05-07T23:04:57;13.10;99.90
8172;DHT22;4127;47.908;10.850;2023-05-07T23:07:25;13.00;99.90
8172;DHT22;4127;47.908;10.850;2023-05-07T23:09:52;13.00;99.90
8172;DHT22;4127;47.908;10.850;2023-05-07T23:12:19;13.00;99.90
8172;DHT22;4127;47.908;10.850;2023-05-07T23:14:45;13.00;99.90
8172;DHT22;4127;47.908;10.850;2023-05-07T23:17:12;12.90;99.90
8172;DHT22;4127;47.908;10.850;2023-05-07T23:19:39;12.80;99.90
8172;DHT22;4127;47.908;10.850;2023-05-07T23:22:06;12.70;99.90
8172;DHT22;4127;47.908;10.850;2023-05-07T23:24:33;12.80;99.90
8172;DHT22;4127;47.908;10.850;2023-05-07T23:27:03;12.70;99.90
8172;DHT22;4127;47.908;10.850;2023-05-07T23:29:31;12.70;99.90
8172;DHT22;4127;47.908;10.850;2023-05-07T23:31:58;12.70;99.90
8172;DHT22;4127;47.908;10.850;2023-05-07T23:34:25;12.80;99.90
8172;DHT22;4127;47.908;10.850;2023-05-07T23:36:52;12.90;99.90
8172;DHT22;4127;47.908;10.850;2023-05-07T23:39:19;12.80;99.90
8172;DHT22;4127;47.908;10.850;2023-05-07T23:41:46;13.00;99.90
8172;DHT22;4127;47.908;10.850;2023-05-07T23:44:13;13.00;99.90
8172;DHT22;4127;47.908;10.850;2023-05-07T23:46:42;13.20;99.90
8172;DHT22;4127;47.908;10.850;2023-05-07T23:49:10;13.30;99.90
8172;DHT22;4127;47.908;10.850;2023-05-07T23:51:37;13.30;99.90
8172;DHT22;4127;47.908;10.850;2023-05-07T23:54:03;13.30;99.90
8172;DHT22;4127;47.908;10.850;2023-05-07T23:56:30;13.00;99.90
8172;DHT22;4127;47.908;10.850;2023-05-07T23:58:57;13.00;99.90
